Aviation Digital Data Service (ADDS)

Output produced by METARs form (1717 UTC 21 September 2019)
found at http://aviationweather.gov/metar/data/
 
KAEX 211140Z 2112/2212 VRB04KT P6SM SKC 
     FM211500 13008KT P6SM SCT025 
     FM212000 13006KT P6SM VCSH SCT050 
     FM220200 13005KT P6SM SCT250